Time;durP1;ratioP1;P1;durP2;ratioP2;P2;SDS_P1;SDS_P2;PMS_P1;PMS_P2;Temp;Humidity;BMP_temperature;BMP_pressure;BME280_temperature;BME280_humidity;BME280_pressure;Samples;Min_cycle;Max_cycle;Signal;HPM_P1;HPM_P2
2021/03/17 00:02:15;;;;;;;9.60;7.63;;;5.20;99.90;;;;;;5022621;28;20212;-72
2021/03/17 00:05:01;;;;;;;11.40;8.23;;;5.20;99.90;;;;;;5023410;28;20589;-72
2021/03/17 00:07:47;;;;;;;11.25;8.73;;;5.10;99.90;;;;;;5024396;28;20577;-72
2021/03/17 00:10:36;;;;;;;10.13;7.88;;;5.20;99.90;;;;;;5020990;28;20753;-72
2021/03/17 00:13:23;;;;;;;10.40;8.05;;;5.20;99.90;;;;;;5021715;28;20247;-73
2021/03/17 00:16:08;;;;;;;14.85;8.90;;;5.20;99.90;;;;;;5021321;28;20197;-72
2021/03/17 00:18:55;;;;;;;14.63;7.28;;;5.30;99.90;;;;;;5019743;28;20205;-72
2021/03/17 00:21:40;;;;;;;11.25;7.32;;;5.30;99.90;;;;;;5023622;28;20738;-72
2021/03/17 00:24:26;;;;;;;9.38;7.70;;;5.20;99.90;;;;;;5024745;28;20229;-72
2021/03/17 00:27:11;;;;;;;10.68;8.02;;;5.20;99.90;;;;;;5020344;28;20215;-72
2021/03/17 00:29:56;;;;;;;9.85;7.75;;;5.10;99.90;;;;;;5020091;28;20989;-73
2021/03/17 00:32:41;;;;;;;10.90;7.90;;;5.00;99.90;;;;;;5021064;28;20630;-73
2021/03/17 00:35:26;;;;;;;7.97;7.03;;;5.00;99.90;;;;;;5025983;28;20268;-72
2021/03/17 00:38:12;;;;;;;10.48;7.57;;;5.00;99.90;;;;;;5017757;28;20209;-72
2021/03/17 00:40:57;;;;;;;11.25;7.88;;;4.90;99.90;;;;;;5019769;28;20229;-73
2021/03/17 00:43:42;;;;;;;9.02;7.22;;;4.90;99.90;;;;;;5021883;28;20204;-73
2021/03/17 00:46:27;;;;;;;11.13;8.00;;;4.90;99.90;;;;;;5019227;28;20277;-72
2021/03/17 00:49:12;;;;;;;9.80;7.55;;;4.90;99.90;;;;;;5023845;28;20315;-72
2021/03/17 00:51:58;;;;;;;10.10;7.63;;;4.90;99.90;;;;;;5019459;28;20248;-72
2021/03/17 00:54:44;;;;;;;11.07;8.48;;;5.00;99.90;;;;;;5016205;28;20197;-72
2021/03/17 00:57:29;;;;;;;11.57;7.90;;;5.00;99.90;;;;;;5023838;28;20205;-72
2021/03/17 01:00:15;;;;;;;8.57;7.32;;;5.10;99.90;;;;;;5022832;28;20268;-72
2021/03/17 01:03:00;;;;;;;10.10;8.10;;;5.00;99.90;;;;;;5023106;28;20311;-72
2021/03/17 01:05:45;;;;;;;10.75;8.30;;;5.10;99.90;;;;;;5025789;28;20693;-72
2021/03/17 01:08:31;;;;;;;10.48;8.15;;;5.20;99.90;;;;;;5025675;28;20698;-72
2021/03/17 01:11:17;;;;;;;8.82;7.22;;;5.20;99.90;;;;;;5014993;28;20230;-72
2021/03/17 01:14:02;;;;;;;10.45;8.45;;;5.30;99.90;;;;;;5021039;28;20278;-72
2021/03/17 01:16:47;;;;;;;9.10;7.55;;;5.30;99.90;;;;;;5019426;28;20675;-72
2021/03/17 01:19:32;;;;;;;11.02;8.15;;;5.40;99.90;;;;;;5023789;28;20209;-72
2021/03/17 01:22:18;;;;;;;9.57;7.75;;;5.40;99.90;;;;;;5025089;28;20614;-72
2021/03/17 01:25:04;;;;;;;9.20;7.60;;;5.50;99.90;;;;;;5021020;28;20221;-72
2021/03/17 01:27:50;;;;;;;10.52;8.30;;;5.40;99.90;;;;;;5016391;28;20333;-72
2021/03/17 01:30:37;;;;;;;10.68;8.20;;;5.40;99.90;;;;;;5026798;28;20265;-73
2021/03/17 01:33:25;;;;;;;11.02;8.57;;;5.50;99.90;;;;;;5018405;28;20513;-73
2021/03/17 01:36:10;;;;;;;10.95;8.60;;;5.50;99.90;;;;;;5015561;28;20206;-72
2021/03/17 01:38:55;;;;;;;13.13;9.05;;;5.60;99.90;;;;;;5018940;28;20297;-72
2021/03/17 01:41:40;;;;;;;10.70;7.53;;;5.50;99.90;;;;;;5018924;28;20272;-72
2021/03/17 01:44:26;;;;;;;9.98;8.13;;;5.50;99.90;;;;;;5026406;28;20746;-72
2021/03/17 01:47:11;;;;;;;13.00;9.40;;;5.40;99.90;;;;;;5024312;28;20226;-72
2021/03/17 01:49:56;;;;;;;14.27;8.98;;;5.40;99.90;;;;;;5021348;28;20364;-72
2021/03/17 01:52:42;;;;;;;13.25;9.38;;;5.30;99.90;;;;;;5025551;28;20252;-72
2021/03/17 01:55:27;;;;;;;11.00;8.90;;;5.40;99.90;;;;;;5027165;28;20198;-72
2021/03/17 01:58:13;;;;;;;12.13;9.80;;;5.30;99.90;;;;;;5028331;28;20205;-72
2021/03/17 02:00:59;;;;;;;9.50;7.65;;;5.40;99.90;;;;;;5027324;28;20229;-73
2021/03/17 02:03:44;;;;;;;12.60;8.98;;;5.40;99.90;;;;;;5025015;28;20202;-73
2021/03/17 02:06:30;;;;;;;10.75;9.20;;;5.50;99.90;;;;;;5024820;28;20205;-72
2021/03/17 02:09:15;;;;;;;12.95;9.52;;;5.40;99.90;;;;;;5029200;28;20301;-73
2021/03/17 02:12:08;;;;;;;10.38;8.27;;;5.40;99.90;;;;;;5028250;28;20213;-72
2021/03/17 02:15:07;;;;;;;38.00;9.40;;;5.50;99.90;;;;;;5024505;28;20201;-72
2021/03/17 02:17:59;;;;;;;13.10;9.10;;;5.60;99.90;;;;;;5022711;28;20225;-72
2021/03/17 02:21:15;;;;;;;11.35;8.43;;;5.50;99.90;;;;;;5023394;28;20340;-72
2021/03/17 02:24:10;;;;;;;12.35;10.65;;;5.50;99.90;;;;;;5023583;28;20256;-73
2021/03/17 02:27:23;;;;;;;13.77;9.30;;;5.60;99.90;;;;;;5022583;28;20287;-72
2021/03/17 02:30:47;;;;;;;12.30;9.40;;;5.60;99.90;;;;;;5001536;28;20253;-72
2021/03/17 02:33:58;;;;;;;13.23;10.23;;;5.70;99.90;;;;;;5024991;28;20552;-73
2021/03/17 02:36:47;;;;;;;13.48;10.30;;;5.80;99.90;;;;;;5026832;28;20213;-73
2021/03/17 02:39:35;;;;;;;14.27;9.25;;;5.90;99.90;;;;;;5025340;28;20272;-72
2021/03/17 02:42:26;;;;;;;11.07;9.50;;;5.70;99.90;;;;;;5026886;28;20229;-72
2021/03/17 02:45:14;;;;;;;12.00;9.43;;;5.70;99.90;;;;;;5021094;28;20325;-73
2021/03/17 02:48:04;;;;;;;13.55;9.30;;;5.80;99.90;;;;;;5022949;28;20622;-73
2021/03/17 02:50:53;;;;;;;14.30;10.07;;;5.90;99.90;;;;;;5024311;28;20284;-73
2021/03/17 02:53:40;;;;;;;12.55;9.93;;;5.80;99.90;;;;;;5023454;28;20265;-73
2021/03/17 02:56:27;;;;;;;11.32;9.10;;;5.80;99.90;;;;;;5026536;28;20248;-73
2021/03/17 02:59:16;;;;;;;11.45;9.20;;;5.80;99.90;;;;;;5020771;28;20260;-73
2021/03/17 03:02:02;;;;;;;12.85;9.77;;;5.80;99.90;;;;;;5019293;28;20625;-73
2021/03/17 03:04:49;;;;;;;12.57;10.00;;;5.80;99.90;;;;;;5025449;28;20229;-73
2021/03/17 03:07:36;;;;;;;15.55;10.20;;;5.80;99.90;;;;;;5026892;28;20281;-73
2021/03/17 03:10:24;;;;;;;13.30;10.63;;;5.90;99.90;;;;;;5029185;28;20280;-72
2021/03/17 03:13:11;;;;;;;12.43;10.45;;;5.90;99.90;;;;;;5024728;28;20667;-73
2021/03/17 03:15:57;;;;;;;12.95;10.30;;;5.90;99.90;;;;;;5028229;28;20202;-73
2021/03/17 03:18:44;;;;;;;13.43;10.27;;;5.90;99.90;;;;;;5019709;28;20229;-73
2021/03/17 03:21:31;;;;;;;13.70;10.95;;;5.90;99.90;;;;;;5027430;28;20222;-73
2021/03/17 03:24:18;;;;;;;13.38;10.23;;;6.00;99.90;;;;;;5024204;28;20271;-73
2021/03/17 03:27:04;;;;;;;13.15;10.55;;;6.00;99.90;;;;;;5022683;28;20770;-72
2021/03/17 03:29:51;;;;;;;13.43;10.38;;;6.10;99.90;;;;;;5020866;28;20224;-73
2021/03/17 03:32:36;;;;;;;13.00;10.13;;;6.10;99.90;;;;;;5015846;28;20205;-73
2021/03/17 03:35:23;;;;;;;13.70;9.77;;;6.00;99.90;;;;;;5025347;28;20214;-72
2021/03/17 03:38:09;;;;;;;14.80;11.23;;;6.00;99.90;;;;;;5021683;28;20291;-72
2021/03/17 03:40:55;;;;;;;14.25;11.30;;;5.80;99.90;;;;;;5022291;28;20714;-72
2021/03/17 03:43:40;;;;;;;20.73;11.95;;;5.70;99.90;;;;;;5018708;28;20283;-72
2021/03/17 03:46:25;;;;;;;12.23;10.85;;;5.70;99.90;;;;;;5021565;28;20198;-72
2021/03/17 03:49:10;;;;;;;13.95;11.10;;;5.70;99.90;;;;;;5023033;28;20245;-73
2021/03/17 03:52:04;;;;;;;17.33;12.05;;;5.70;99.90;;;;;;5022938;28;20613;-73
2021/03/17 03:54:53;;;;;;;14.05;11.55;;;5.80;99.90;;;;;;5016537;28;20198;-73
2021/03/17 03:57:45;;;;;;;13.07;10.70;;;5.90;99.90;;;;;;5019311;28;20245;-72
2021/03/17 04:00:33;;;;;;;14.85;11.63;;;6.00;99.90;;;;;;5024658;28;20594;-73
2021/03/17 04:03:21;;;;;;;14.00;10.77;;;5.90;99.90;;;;;;5024215;28;20302;-72
2021/03/17 04:06:06;;;;;;;15.45;11.43;;;5.90;99.90;;;;;;5020754;28;20229;-72
2021/03/17 04:08:55;;;;;;;13.02;10.80;;;5.70;99.90;;;;;;5017658;28;20194;-72
2021/03/17 04:11:42;;;;;;;17.25;12.25;;;5.60;99.90;;;;;;5026180;28;20580;-72
2021/03/17 04:14:31;;;;;;;16.15;12.48;;;5.60;99.90;;;;;;5021712;28;20555;-73
2021/03/17 04:17:22;;;;;;;15.90;12.30;;;5.50;99.90;;;;;;5024570;28;20612;-72
2021/03/17 04:20:10;;;;;;;18.80;12.77;;;5.60;99.90;;;;;;5025800;28;20222;-73
2021/03/17 04:22:56;;;;;;;14.60;11.55;;;5.70;99.90;;;;;;5024816;28;20260;-72
2021/03/17 04:25:44;;;;;;;15.60;11.40;;;5.70;99.90;;;;;;5021564;28;20221;-73
2021/03/17 04:28:30;;;;;;;15.27;11.40;;;5.80;99.90;;;;;;5016385;28;20674;-73
2021/03/17 04:31:17;;;;;;;15.13;11.80;;;5.80;99.90;;;;;;5021593;28;20272;-73
2021/03/17 04:34:03;;;;;;;15.85;11.85;;;5.80;99.90;;;;;;5024837;28;20209;-72
2021/03/17 04:36:49;;;;;;;16.88;12.95;;;5.90;99.90;;;;;;5022315;28;20201;-72
2021/03/17 04:39:36;;;;;;;16.52;12.70;;;6.00;99.90;;;;;;5021410;28;20204;-75
2021/03/17 04:42:21;;;;;;;13.55;11.32;;;5.90;99.90;;;;;;5024431;28;20205;-72
2021/03/17 04:45:10;;;;;;;17.15;13.05;;;5.80;99.90;;;;;;5026196;28;20225;-72
2021/03/17 04:47:57;;;;;;;15.57;12.75;;;5.80;99.90;;;;;;5021395;28;20225;-72
2021/03/17 04:50:45;;;;;;;15.90;12.43;;;5.80;99.90;;;;;;5021676;28;20304;-72
2021/03/17 04:53:30;;;;;;;17.30;11.98;;;5.80;99.90;;;;;;5024004;28;20227;-72
2021/03/17 04:56:15;;;;;;;14.15;10.52;;;5.70;99.90;;;;;;5023374;28;20205;-73
2021/03/17 04:59:02;;;;;;;21.85;12.82;;;5.70;99.90;;;;;;5021020;28;20621;-72
2021/03/17 05:01:47;;;;;;;15.40;12.25;;;5.60;99.90;;;;;;5020490;28;20253;-73
2021/03/17 05:04:34;;;;;;;17.45;12.45;;;5.50;99.90;;;;;;5025041;28;20225;-72
2021/03/17 05:07:21;;;;;;;17.90;11.95;;;5.40;99.90;;;;;;5021702;28;20210;-72
2021/03/17 05:10:07;;;;;;;18.92;13.68;;;5.40;99.90;;;;;;5024106;28;20228;-72
2021/03/17 05:12:54;;;;;;;20.70;14.02;;;5.40;99.90;;;;;;5016579;28;20758;-72
2021/03/17 05:15:39;;;;;;;18.00;13.32;;;5.40;99.90;;;;;;5019044;28;20546;-72
2021/03/17 05:18:26;;;;;;;17.55;12.63;;;5.40;99.90;;;;;;5019448;28;20202;-72
2021/03/17 05:21:13;;;;;;;18.20;13.02;;;5.30;99.90;;;;;;5024655;28;20260;-72
2021/03/17 05:23:58;;;;;;;21.25;13.35;;;5.30;99.90;;;;;;5023004;28;20276;-73
2021/03/17 05:26:44;;;;;;;17.08;13.10;;;5.30;99.90;;;;;;5022797;28;20212;-72
2021/03/17 05:29:30;;;;;;;17.02;13.18;;;5.30;99.90;;;;;;5018653;28;20241;-73
2021/03/17 05:32:16;;;;;;;18.05;13.80;;;5.30;99.90;;;;;;5025917;28;20376;-72
2021/03/17 05:35:03;;;;;;;22.70;13.60;;;5.30;99.90;;;;;;5025679;28;20209;-72
2021/03/17 05:37:49;;;;;;;20.40;13.43;;;5.30;99.90;;;;;;5019333;28;20217;-72
2021/03/17 05:40:35;;;;;;;18.92;13.00;;;5.30;99.90;;;;;;5022339;28;20224;-72
2021/03/17 05:43:21;;;;;;;20.98;14.13;;;5.30;99.90;;;;;;5027505;28;20715;-72
2021/03/17 05:46:07;;;;;;;20.15;13.82;;;5.30;99.90;;;;;;5029239;28;20582;-72
2021/03/17 05:48:52;;;;;;;30.50;14.63;;;5.20;99.90;;;;;;5028461;28;20577;-72
2021/03/17 05:51:39;;;;;;;32.00;19.83;;;5.30;99.90;;;;;;5027135;28;20225;-72
2021/03/17 05:54:25;;;;;;;29.83;17.38;;;5.30;99.90;;;;;;5028049;28;20221;-73
2021/03/17 05:57:11;;;;;;;29.63;17.45;;;5.30;99.90;;;;;;5028809;28;20226;-72
2021/03/17 05:59:56;;;;;;;21.88;14.20;;;5.40;99.90;;;;;;5025963;28;20301;-72
2021/03/17 06:02:42;;;;;;;21.52;15.15;;;5.50;99.90;;;;;;5026798;28;20201;-72
2021/03/17 06:05:27;;;;;;;19.77;13.50;;;5.60;99.90;;;;;;5020410;28;20273;-72
2021/03/17 06:08:14;;;;;;;24.70;16.00;;;5.70;99.90;;;;;;5023594;28;20248;-72
2021/03/17 06:11:01;;;;;;;22.52;14.80;;;5.70;99.90;;;;;;5020132;28;20819;-73
2021/03/17 06:13:49;;;;;;;19.88;14.30;;;5.70;99.90;;;;;;5027536;28;20201;-72
2021/03/17 06:16:37;;;;;;;23.10;17.35;;;5.80;99.90;;;;;;5020802;28;20206;-73
2021/03/17 06:19:25;;;;;;;27.55;16.77;;;5.70;99.90;;;;;;5021233;28;20625;-72
2021/03/17 06:22:10;;;;;;;23.77;16.85;;;5.60;99.90;;;;;;5025376;28;21451;-72
2021/03/17 06:24:57;;;;;;;23.73;16.80;;;5.60;99.90;;;;;;5028082;28;20261;-72
2021/03/17 06:27:44;;;;;;;25.98;17.27;;;5.70;99.90;;;;;;5026272;28;20567;-72
2021/03/17 06:30:29;;;;;;;24.25;15.63;;;5.50;99.90;;;;;;5020679;28;20493;-72
2021/03/17 06:33:14;;;;;;;31.52;18.52;;;5.50;99.90;;;;;;5015740;28;20343;-72
2021/03/17 06:36:16;;;;;;;24.63;17.85;;;5.40;99.90;;;;;;5017195;28;20198;-73
2021/03/17 06:39:07;;;;;;;28.50;18.35;;;5.40;99.90;;;;;;5025277;28;20640;-72
2021/03/17 06:41:54;;;;;;;24.00;15.50;;;5.50;99.90;;;;;;5027090;28;20566;-72
2021/03/17 06:44:40;;;;;;;24.75;16.55;;;5.40;99.90;;;;;;5025672;28;20222;-72
2021/03/17 06:47:25;;;;;;;23.08;16.15;;;5.40;99.90;;;;;;5019218;28;20245;-72
2021/03/17 06:50:14;;;;;;;25.55;15.93;;;5.40;99.90;;;;;;5027974;28;20291;-73
2021/03/17 06:53:00;;;;;;;28.27;17.15;;;5.50;99.90;;;;;;5021852;28;20217;-73
2021/03/17 06:55:45;;;;;;;28.10;17.23;;;5.60;99.90;;;;;;5027248;28;20205;-73
2021/03/17 06:58:39;;;;;;;24.38;15.70;;;5.70;99.90;;;;;;5025191;28;20201;-72
2021/03/17 07:01:27;;;;;;;23.80;16.05;;;5.80;99.90;;;;;;5022869;28;20240;-73
2021/03/17 07:04:14;;;;;;;32.63;17.90;;;6.00;99.90;;;;;;5016800;28;20577;-73
2021/03/17 07:07:01;;;;;;;22.65;16.73;;;6.00;99.90;;;;;;5027355;28;20205;-73
2021/03/17 07:09:59;;;;;;;28.98;19.30;;;5.90;99.90;;;;;;5024499;28;20268;-73
2021/03/17 07:12:44;;;;;;;24.30;16.95;;;6.10;99.90;;;;;;5020498;28;20332;-73
2021/03/17 07:15:29;;;;;;;25.73;18.08;;;6.10;99.90;;;;;;5023796;28;20735;-73
2021/03/17 07:18:17;;;;;;;31.77;19.95;;;6.20;99.90;;;;;;5023458;28;20205;-73
2021/03/17 07:21:04;;;;;;;28.57;18.50;;;6.30;99.90;;;;;;5024575;28;20277;-73
2021/03/17 07:23:50;;;;;;;27.50;19.85;;;6.40;99.90;;;;;;5023301;28;20468;-73
2021/03/17 07:26:36;;;;;;;30.67;20.50;;;6.50;99.90;;;;;;5024842;28;20217;-73
2021/03/17 07:29:22;;;;;;;31.10;21.73;;;6.50;99.90;;;;;;5020897;28;20197;-73
2021/03/17 07:32:07;;;;;;;35.35;20.75;;;6.60;99.90;;;;;;5021482;28;20269;-73
2021/03/17 07:34:54;;;;;;;32.65;19.20;;;6.70;99.90;;;;;;5019951;28;20304;-73
2021/03/17 07:37:40;;;;;;;28.92;18.63;;;6.80;99.90;;;;;;5024860;28;20193;-73
2021/03/17 07:40:25;;;;;;;35.42;19.23;;;6.90;99.90;;;;;;5024882;28;20225;-73
2021/03/17 07:43:11;;;;;;;30.17;18.08;;;7.00;99.90;;;;;;5020796;28;20268;-73
2021/03/17 07:45:56;;;;;;;26.27;17.10;;;7.00;99.90;;;;;;5019717;28;20608;-73
2021/03/17 07:48:42;;;;;;;29.60;18.40;;;7.00;99.90;;;;;;5024087;28;20200;-73
2021/03/17 07:51:29;;;;;;;26.50;17.38;;;7.00;99.90;;;;;;5025554;28;20402;-74
2021/03/17 07:54:22;;;;;;;31.88;16.98;;;7.10;99.90;;;;;;5023966;28;20214;-73
2021/03/17 07:57:09;;;;;;;24.60;15.50;;;7.30;99.90;;;;;;5020443;28;20261;-73
2021/03/17 07:59:58;;;;;;;28.20;14.77;;;7.20;99.90;;;;;;5024464;28;20738;-73
2021/03/17 08:02:45;;;;;;;20.33;13.73;;;7.10;99.90;;;;;;5018712;28;20202;-73
2021/03/17 08:05:30;;;;;;;25.40;15.18;;;7.10;99.90;;;;;;5021205;28;20225;-73
2021/03/17 08:08:18;;;;;;;22.38;14.75;;;7.20;99.90;;;;;;5021987;28;20783;-73
2021/03/17 08:11:03;;;;;;;23.10;13.48;;;7.20;99.90;;;;;;5016544;28;20237;-73
2021/03/17 08:13:51;;;;;;;33.27;15.80;;;7.10;99.90;;;;;;5022606;28;20312;-74
2021/03/17 08:16:37;;;;;;;18.33;13.77;;;7.10;99.90;;;;;;5018621;28;20943;-74
2021/03/17 08:19:24;;;;;;;21.60;12.67;;;7.00;99.90;;;;;;5023236;28;20492;-74
2021/03/17 08:22:09;;;;;;;21.13;14.77;;;7.10;99.90;;;;;;5021920;28;21041;-74
2021/03/17 08:24:56;;;;;;;22.75;14.52;;;7.10;99.90;;;;;;5020032;28;20512;-76
2021/03/17 08:27:41;;;;;;;20.90;13.95;;;7.00;99.90;;;;;;5017390;28;20296;-73
2021/03/17 08:30:32;;;;;;;26.47;16.13;;;7.00;99.90;;;;;;5022407;28;20300;-74
2021/03/17 08:33:34;;;;;;;20.70;13.90;;;7.00;99.90;;;;;;5019962;28;20460;-73
2021/03/17 08:36:19;;;;;;;25.52;15.68;;;7.00;99.90;;;;;;5026490;28;20471;-71
2021/03/17 08:39:04;;;;;;;27.27;15.30;;;7.10;99.90;;;;;;5019579;28;20213;-72
2021/03/17 08:41:55;;;;;;;25.43;14.93;;;6.90;99.90;;;;;;5025510;28;20623;-72
2021/03/17 08:44:45;;;;;;;21.07;14.10;;;6.80;99.90;;;;;;5023499;28;20477;-72
2021/03/17 08:47:33;;;;;;;22.63;14.70;;;6.60;99.90;;;;;;5021773;28;20430;-72
2021/03/17 08:50:21;;;;;;;20.33;15.33;;;6.40;99.90;;;;;;5024724;28;20233;-72
2021/03/17 08:53:06;;;;;;;21.08;14.10;;;6.30;99.90;;;;;;5023352;28;20452;-73
2021/03/17 08:55:51;;;;;;;28.92;14.68;;;6.00;99.90;;;;;;5026847;28;20232;-72
2021/03/17 08:58:37;;;;;;;18.52;14.07;;;5.90;99.90;;;;;;5030599;28;20824;-72
2021/03/17 09:01:32;;;;;;;19.08;13.27;;;5.90;99.90;;;;;;5031113;28;20614;-72
2021/03/17 09:04:43;;;;;;;25.90;14.30;;;6.00;99.90;;;;;;5030592;28;20208;-72
2021/03/17 09:07:30;;;;;;;23.50;16.23;;;6.20;99.90;;;;;;5027302;28;21024;-72
2021/03/17 09:10:16;;;;;;;23.95;14.98;;;6.30;99.90;;;;;;5019168;28;20693;-72
2021/03/17 09:13:01;;;;;;;22.70;15.77;;;6.40;99.90;;;;;;5028032;28;20605;-72
2021/03/17 09:15:49;;;;;;;22.67;15.55;;;6.50;99.90;;;;;;5028244;28;22122;-72
2021/03/17 09:18:35;;;;;;;19.83;13.43;;;6.50;99.90;;;;;;5021624;28;20628;-72
2021/03/17 09:21:28;;;;;;;21.35;12.70;;;6.40;99.90;;;;;;5023136;28;20241;-72
2021/03/17 09:24:28;;;;;;;20.38;12.07;;;6.40;99.90;;;;;;5020265;28;20206;-72
2021/03/17 09:27:13;;;;;;;17.60;10.73;;;6.40;99.90;;;;;;5025179;28;22096;-72
2021/03/17 09:29:59;;;;;;;23.75;12.57;;;6.40;99.90;;;;;;5022811;28;20447;-73
2021/03/17 09:32:45;;;;;;;19.88;10.75;;;6.40;99.90;;;;;;5023259;28;20271;-72
2021/03/17 09:35:31;;;;;;;18.73;9.55;;;6.40;99.90;;;;;;5026801;28;20214;-72
2021/03/17 09:38:19;;;;;;;17.38;10.88;;;6.30;99.90;;;;;;5024320;28;20256;-72
2021/03/17 09:41:09;;;;;;;22.40;11.75;;;6.30;99.90;;;;;;5023139;28;20220;-72
2021/03/17 09:43:56;;;;;;;22.50;10.85;;;6.30;99.90;;;;;;5023009;28;20233;-72
2021/03/17 09:46:43;;;;;;;18.00;11.82;;;6.40;99.90;;;;;;5022090;28;20241;-72
2021/03/17 09:49:28;;;;;;;19.25;11.07;;;6.50;99.90;;;;;;5026922;28;20217;-72
2021/03/17 09:52:13;;;;;;;23.38;11.95;;;6.50;99.90;;;;;;5023790;28;20687;-72
2021/03/17 09:54:59;;;;;;;19.52;11.90;;;6.50;99.90;;;;;;5020365;28;20297;-70
2021/03/17 09:57:44;;;;;;;23.15;11.95;;;6.30;99.90;;;;;;5021625;28;20221;-71
2021/03/17 10:00:29;;;;;;;19.58;13.15;;;6.20;99.90;;;;;;5019574;28;20711;-73
2021/03/17 10:03:15;;;;;;;21.20;12.73;;;6.20;99.90;;;;;;5022412;28;20702;-72
2021/03/17 10:06:01;;;;;;;21.23;12.85;;;6.20;99.90;;;;;;5025097;28;22533;-73
2021/03/17 10:08:54;;;;;;;21.42;13.05;;;6.30;99.90;;;;;;5017808;28;20213;-73
2021/03/17 10:11:40;;;;;;;17.23;11.98;;;6.50;99.90;;;;;;5022651;28;20697;-73
2021/03/17 10:14:25;;;;;;;22.27;13.55;;;6.60;99.90;;;;;;5024741;28;20209;-73
2021/03/17 10:17:11;;;;;;;18.23;12.55;;;6.50;99.90;;;;;;5024347;28;20246;-73
2021/03/17 10:19:58;;;;;;;24.98;13.25;;;6.20;99.90;;;;;;5027611;28;20728;-73
2021/03/17 10:22:45;;;;;;;21.27;11.98;;;6.20;99.90;;;;;;5021782;28;20224;-73
2021/03/17 10:25:30;;;;;;;19.70;13.50;;;6.20;99.90;;;;;;5019755;28;20648;-73
2021/03/17 10:28:16;;;;;;;18.52;11.63;;;6.20;99.90;;;;;;5018777;28;20739;-72
2021/03/17 10:31:01;;;;;;;17.92;11.93;;;6.20;99.90;;;;;;5026072;28;20225;-74
2021/03/17 10:33:48;;;;;;;19.60;10.23;;;6.10;99.90;;;;;;5017955;28;20621;-73
2021/03/17 10:36:38;;;;;;;21.20;11.10;;;6.30;99.90;;;;;;5018724;28;20214;-72
2021/03/17 10:39:28;;;;;;;18.25;10.20;;;6.40;99.90;;;;;;5024670;28;20252;-72
2021/03/17 10:42:18;;;;;;;16.63;11.02;;;6.50;99.90;;;;;;5024795;28;20214;-72
2021/03/17 10:45:07;;;;;;;18.73;9.85;;;6.60;99.90;;;;;;5022774;28;20272;-72
2021/03/17 10:47:52;;;;;;;14.63;10.50;;;6.70;99.90;;;;;;5023001;28;20297;-73
2021/03/17 10:50:38;;;;;;;14.15;10.25;;;6.50;99.90;;;;;;5028932;28;20841;-73
2021/03/17 10:53:25;;;;;;;14.45;10.50;;;6.60;99.90;;;;;;5025668;28;20228;-73
2021/03/17 10:56:16;;;;;;;18.00;10.32;;;6.80;99.90;;;;;;5024409;28;20272;-73
2021/03/17 10:59:01;;;;;;;14.43;10.38;;;6.90;99.90;;;;;;5019755;28;20210;-73
2021/03/17 11:01:46;;;;;;;12.32;9.32;;;6.90;99.90;;;;;;5025563;28;20240;-73
2021/03/17 11:04:31;;;;;;;16.75;9.40;;;7.00;99.90;;;;;;5027182;28;20277;-74
2021/03/17 11:07:16;;;;;;;15.98;9.00;;;7.10;99.90;;;;;;5027744;28;20237;-73
2021/03/17 11:10:01;;;;;;;11.93;8.53;;;7.10;99.90;;;;;;5017173;28;20221;-74
2021/03/17 11:12:47;;;;;;;14.57;9.50;;;7.00;99.90;;;;;;5021204;28;20460;-74
2021/03/17 11:15:32;;;;;;;13.50;9.50;;;7.00;99.90;;;;;;5027811;28;20208;-74
2021/03/17 11:18:20;;;;;;;11.23;8.65;;;7.00;99.90;;;;;;5024824;28;20252;-74
2021/03/17 11:21:08;;;;;;;13.68;9.02;;;7.10;99.90;;;;;;5020535;28;20225;-73
2021/03/17 11:23:54;;;;;;;15.63;10.17;;;7.10;99.90;;;;;;5016122;28;20251;-74
2021/03/17 11:26:40;;;;;;;13.07;9.93;;;7.10;99.90;;;;;;5021291;28;21292;-74
2021/03/17 11:29:29;;;;;;;14.98;8.40;;;7.20;99.90;;;;;;5019518;28;20214;-74
2021/03/17 11:32:14;;;;;;;13.93;9.80;;;7.00;99.90;;;;;;5020684;28;20214;-73
2021/03/17 11:34:59;;;;;;;16.25;9.90;;;6.90;99.90;;;;;;5017703;28;20237;-74
2021/03/17 11:37:44;;;;;;;4.85;3.03;;;7.00;99.90;;;;;;5018384;28;20581;-73
2021/03/17 11:40:29;;;;;;;3.40;2.35;;;6.90;99.90;;;;;;5023904;28;20229;-73
2021/03/17 11:43:16;;;;;;;3.20;2.17;;;6.50;99.90;;;;;;5024213;28;20233;-73
2021/03/17 11:46:03;;;;;;;3.17;2.10;;;6.20;99.90;;;;;;5022529;28;20884;-74
2021/03/17 11:48:48;;;;;;;2.55;1.90;;;6.00;99.90;;;;;;5025399;28;20217;-73
2021/03/17 11:51:33;;;;;;;3.90;2.47;;;5.90;99.90;;;;;;5023068;28;20356;-72
2021/03/17 11:54:18;;;;;;;4.45;3.03;;;5.80;99.90;;;;;;5021318;28;20286;-73
2021/03/17 11:57:04;;;;;;;4.30;2.65;;;5.60;99.90;;;;;;5023001;28;20221;-74
2021/03/17 11:59:49;;;;;;;7.80;2.90;;;5.60;99.90;;;;;;5016298;28;20229;-74
2021/03/17 12:02:35;;;;;;;5.32;2.88;;;5.50;99.90;;;;;;5021365;28;20337;-74
2021/03/17 12:05:20;;;;;;;4.15;2.50;;;5.50;99.90;;;;;;5020383;28;20226;-74
2021/03/17 12:08:06;;;;;;;4.50;3.35;;;5.50;99.90;;;;;;5022216;28;20213;-74
2021/03/17 12:10:52;;;;;;;4.70;3.22;;;5.40;99.90;;;;;;5023620;28;20282;-74
2021/03/17 12:13:37;;;;;;;4.78;3.80;;;5.40;99.90;;;;;;5020003;28;20235;-74
2021/03/17 12:16:22;;;;;;;6.95;3.25;;;5.30;99.90;;;;;;5023932;28;20206;-74
2021/03/17 12:19:08;;;;;;;6.03;4.30;;;5.20;99.90;;;;;;5020869;28;20222;-74
2021/03/17 12:21:53;;;;;;;7.65;3.90;;;5.10;99.90;;;;;;5020951;28;20209;-74
2021/03/17 12:24:38;;;;;;;5.22;3.70;;;5.00;99.90;;;;;;5018704;28;20217;-74
2021/03/17 12:27:23;;;;;;;6.35;4.45;;;5.00;99.90;;;;;;5021603;28;20321;-74
2021/03/17 12:30:11;;;;;;;4.90;3.53;;;5.10;99.90;;;;;;5019751;28;20237;-74
2021/03/17 12:32:56;;;;;;;5.15;3.97;;;5.10;99.90;;;;;;5016451;28;20213;-74
2021/03/17 12:35:42;;;;;;;6.55;4.93;;;5.10;99.90;;;;;;5021264;28;20251;-74
2021/03/17 12:38:28;;;;;;;5.22;4.18;;;5.30;99.90;;;;;;5019518;28;20245;-74
2021/03/17 12:41:13;;;;;;;5.30;4.05;;;5.30;99.90;;;;;;5019872;28;20244;-74
2021/03/17 12:43:58;;;;;;;5.75;3.80;;;5.40;99.90;;;;;;5022577;28;20671;-74
2021/03/17 12:46:43;;;;;;;11.32;4.63;;;5.50;99.90;;;;;;5018381;28;20221;-74
2021/03/17 12:49:29;;;;;;;4.40;3.72;;;5.60;99.90;;;;;;5014858;28;20699;-74
2021/03/17 12:52:15;;;;;;;4.85;3.70;;;5.70;99.90;;;;;;5019788;28;20618;-74
2021/03/17 12:55:00;;;;;;;4.43;3.40;;;5.70;99.90;;;;;;5023308;28;20233;-74
2021/03/17 12:57:45;;;;;;;7.20;5.22;;;5.60;99.90;;;;;;5013696;28;20205;-74
2021/03/17 13:00:30;;;;;;;5.93;4.22;;;5.80;99.90;;;;;;5020414;28;20241;-74
2021/03/17 13:03:15;;;;;;;5.70;4.18;;;5.80;99.90;;;;;;5017178;28;20641;-74
2021/03/17 13:06:01;;;;;;;6.45;4.55;;;5.70;99.90;;;;;;5021766;28;20323;-74
2021/03/17 13:08:47;;;;;;;6.22;4.45;;;5.70;99.90;;;;;;5022336;28;20256;-74
2021/03/17 13:11:32;;;;;;;6.20;4.25;;;5.80;99.90;;;;;;5024595;28;20225;-74
2021/03/17 13:14:19;;;;;;;6.63;4.80;;;5.70;99.90;;;;;;5024478;28;20519;-74
2021/03/17 13:17:04;;;;;;;5.95;4.50;;;5.70;99.90;;;;;;5022250;28;20198;-74
2021/03/17 13:19:49;;;;;;;7.15;4.70;;;5.80;99.90;;;;;;5022852;28;20228;-74
2021/03/17 13:22:34;;;;;;;6.73;4.50;;;6.00;99.90;;;;;;5020956;28;20557;-74
2021/03/17 13:25:21;;;;;;;7.22;5.10;;;6.10;99.90;;;;;;5023658;28;20468;-74
2021/03/17 13:28:06;;;;;;;5.40;4.00;;;6.20;99.90;;;;;;5020994;28;20248;-74
2021/03/17 13:30:51;;;;;;;5.93;4.05;;;6.20;99.90;;;;;;5023756;28;20253;-74
2021/03/17 13:33:36;;;;;;;5.30;4.30;;;6.20;99.90;;;;;;5021473;28;20209;-74
2021/03/17 13:36:21;;;;;;;11.30;7.10;;;6.30;99.90;;;;;;5024434;28;20734;-74
2021/03/17 13:39:08;;;;;;;8.65;5.95;;;6.40;99.90;;;;;;5018322;28;20211;-74
2021/03/17 13:41:54;;;;;;;6.17;4.40;;;6.50;99.90;;;;;;5025816;28;20599;-74
2021/03/17 13:44:40;;;;;;;6.75;4.75;;;6.50;99.90;;;;;;5022636;28;20511;-74
2021/03/17 13:47:25;;;;;;;7.72;4.50;;;6.50;99.90;;;;;;5025161;28;20202;-74
2021/03/17 13:50:13;;;;;;;6.05;4.65;;;6.50;99.90;;;;;;5022121;28;20245;-74
2021/03/17 13:52:59;;;;;;;6.80;4.75;;;6.50;99.90;;;;;;5021616;28;20658;-74
2021/03/17 13:55:45;;;;;;;6.60;4.68;;;6.50;99.90;;;;;;5026470;28;20210;-74
2021/03/17 13:58:31;;;;;;;8.05;5.90;;;6.60;99.90;;;;;;5025113;28;20600;-74
2021/03/17 14:01:17;;;;;;;10.82;4.72;;;6.60;99.90;;;;;;5025434;28;20309;-76
2021/03/17 14:04:02;;;;;;;7.35;5.43;;;6.80;99.90;;;;;;5026154;28;20287;-74
2021/03/17 14:06:47;;;;;;;6.85;5.80;;;7.00;99.90;;;;;;5023130;28;20750;-74
2021/03/17 14:09:33;;;;;;;8.07;5.63;;;7.20;99.90;;;;;;5025979;28;20322;-74
2021/03/17 14:12:18;;;;;;;7.30;4.57;;;7.30;99.90;;;;;;5022905;28;20615;-74
2021/03/17 14:15:05;;;;;;;6.13;4.30;;;7.70;99.90;;;;;;5023606;28;20533;-74
2021/03/17 14:17:52;;;;;;;5.22;3.70;;;8.00;99.90;;;;;;5027236;28;20638;-74
2021/03/17 14:20:37;;;;;;;5.87;3.67;;;8.20;99.90;;;;;;5024856;28;20694;-75
2021/03/17 14:23:23;;;;;;;5.23;3.33;;;8.30;99.90;;;;;;5027635;28;20864;-74
2021/03/17 14:26:08;;;;;;;9.80;4.65;;;8.30;99.90;;;;;;5025132;28;20569;-75